sensor_id;sensor_type;location;lat;lon;timestamp;P1;durP1;ratioP1;P2;durP2;ratioP2
13255;SDS011;37913;48.370;10.930;2023-02-28T00:01:10;62.20;;;28.07;;
13255;SDS011;37913;48.370;10.930;2023-02-28T00:03:37;64.73;;;28.97;;
13255;SDS011;37913;48.370;10.930;2023-02-28T00:06:05;63.67;;;28.97;;
13255;SDS011;37913;48.370;10.930;2023-02-28T00:08:34;63.10;;;28.50;;
13255;SDS011;37913;48.370;10.930;2023-02-28T00:11:01;64.27;;;29.10;;
13255;SDS011;37913;48.370;10.930;2023-02-28T00:13:30;62.13;;;28.30;;
13255;SDS011;37913;48.370;10.930;2023-02-28T00:15:58;62.73;;;28.30;;
13255;SDS011;37913;48.370;10.930;2023-02-28T00:18:26;62.17;;;27.77;;
13255;SDS011;37913;48.370;10.930;2023-02-28T00:20:53;70.43;;;30.03;;
13255;SDS011;37913;48.370;10.930;2023-02-28T00:23:20;63.63;;;28.03;;
13255;SDS011;37913;48.370;10.930;2023-02-28T00:25:47;63.37;;;28.23;;
13255;SDS011;37913;48.370;10.930;2023-02-28T00:28:14;59.40;;;27.40;;
13255;SDS011;37913;48.370;10.930;2023-02-28T00:30:43;65.90;;;29.13;;
13255;SDS011;37913;48.370;10.930;2023-02-28T00:33:10;62.73;;;28.20;;
13255;SDS011;37913;48.370;10.930;2023-02-28T00:35:38;66.63;;;28.93;;
13255;SDS011;37913;48.370;10.930;2023-02-28T00:38:05;67.80;;;29.13;;
13255;SDS011;37913;48.370;10.930;2023-02-28T00:40:32;60.47;;;27.60;;
13255;SDS011;37913;48.370;10.930;2023-02-28T00:42:59;72.17;;;30.53;;
13255;SDS011;37913;48.370;10.930;2023-02-28T00:45:25;61.40;;;27.60;;
13255;SDS011;37913;48.370;10.930;2023-02-28T00:47:54;54.93;;;26.73;;
13255;SDS011;37913;48.370;10.930;2023-02-28T00:50:21;58.87;;;27.07;;
13255;SDS011;37913;48.370;10.930;2023-02-28T00:52:48;63.13;;;28.30;;
13255;SDS011;37913;48.370;10.930;2023-02-28T00:55:15;53.00;;;25.77;;
13255;SDS011;37913;48.370;10.930;2023-02-28T00:57:42;65.87;;;28.30;;
13255;SDS011;37913;48.370;10.930;2023-02-28T01:00:09;63.43;;;28.27;;
13255;SDS011;37913;48.370;10.930;2023-02-28T01:02:37;55.40;;;26.43;;
13255;SDS011;37913;48.370;10.930;2023-02-28T01:05:06;62.90;;;28.13;;
13255;SDS011;37913;48.370;10.930;2023-02-28T01:07:33;65.53;;;28.47;;
13255;SDS011;37913;48.370;10.930;2023-02-28T01:10:00;52.93;;;25.30;;
13255;SDS011;37913;48.370;10.930;2023-02-28T01:12:27;62.93;;;28.17;;
13255;SDS011;37913;48.370;10.930;2023-02-28T01:14:54;87.77;;;32.30;;
13255;SDS011;37913;48.370;10.930;2023-02-28T01:17:21;63.63;;;28.30;;
13255;SDS011;37913;48.370;10.930;2023-02-28T01:19:48;63.70;;;28.40;;
13255;SDS011;37913;48.370;10.930;2023-02-28T01:22:16;64.27;;;28.93;;
13255;SDS011;37913;48.370;10.930;2023-02-28T01:24:43;72.53;;;29.53;;
13255;SDS011;37913;48.370;10.930;2023-02-28T01:27:10;62.50;;;27.53;;
13255;SDS011;37913;48.370;10.930;2023-02-28T01:29:37;63.40;;;28.20;;
13255;SDS011;37913;48.370;10.930;2023-02-28T01:32:04;57.70;;;27.17;;
13255;SDS011;37913;48.370;10.930;2023-02-28T01:34:31;57.63;;;26.73;;
13255;SDS011;37913;48.370;10.930;2023-02-28T01:36:57;56.83;;;27.13;;
13255;SDS011;37913;48.370;10.930;2023-02-28T01:39:26;54.57;;;26.77;;
13255;SDS011;37913;48.370;10.930;2023-02-28T01:41:53;54.53;;;26.40;;
13255;SDS011;37913;48.370;10.930;2023-02-28T01:47:23;58.33;;;27.27;;
13255;SDS011;37913;48.370;10.930;2023-02-28T01:49:53;55.23;;;26.10;;
13255;SDS011;37913;48.370;10.930;2023-02-28T01:52:20;55.77;;;26.83;;
13255;SDS011;37913;48.370;10.930;2023-02-28T01:54:52;83.10;;;31.60;;
13255;SDS011;37913;48.370;10.930;2023-02-28T01:57:21;59.83;;;27.83;;
13255;SDS011;37913;48.370;10.930;2023-02-28T01:59:52;57.53;;;26.77;;
13255;SDS011;37913;48.370;10.930;2023-02-28T02:02:24;58.40;;;27.50;;
13255;SDS011;37913;48.370;10.930;2023-02-28T02:04:53;91.33;;;32.50;;
13255;SDS011;37913;48.370;10.930;2023-02-28T02:07:23;60.17;;;27.20;;
13255;SDS011;37913;48.370;10.930;2023-02-28T02:10:00;64.60;;;28.97;;
13255;SDS011;37913;48.370;10.930;2023-02-28T02:12:32;58.87;;;27.33;;
13255;SDS011;37913;48.370;10.930;2023-02-28T02:15:09;62.97;;;28.43;;
13255;SDS011;37913;48.370;10.930;2023-02-28T02:17:43;57.67;;;26.97;;
13255;SDS011;37913;48.370;10.930;2023-02-28T02:20:16;58.53;;;26.97;;
13255;SDS011;37913;48.370;10.930;2023-02-28T02:26:23;64.93;;;28.67;;
13255;SDS011;37913;48.370;10.930;2023-02-28T02:32:25;57.27;;;26.83;;
13255;SDS011;37913;48.370;10.930;2023-02-28T02:35:13;54.33;;;26.40;;
13255;SDS011;37913;48.370;10.930;2023-02-28T02:37:47;60.50;;;27.80;;
13255;SDS011;37913;48.370;10.930;2023-02-28T02:40:19;57.30;;;27.77;;
13255;SDS011;37913;48.370;10.930;2023-02-28T02:42:49;61.07;;;27.73;;
13255;SDS011;37913;48.370;10.930;2023-02-28T02:47:54;58.13;;;27.83;;
13255;SDS011;37913;48.370;10.930;2023-02-28T02:50:27;61.13;;;28.30;;
13255;SDS011;37913;48.370;10.930;2023-02-28T02:52:58;64.67;;;29.43;;
13255;SDS011;37913;48.370;10.930;2023-02-28T02:55:27;56.30;;;27.53;;
13255;SDS011;37913;48.370;10.930;2023-02-28T02:57:56;55.70;;;26.93;;
13255;SDS011;37913;48.370;10.930;2023-02-28T03:00:30;61.43;;;28.20;;
13255;SDS011;37913;48.370;10.930;2023-02-28T03:03:02;58.27;;;27.60;;
13255;SDS011;37913;48.370;10.930;2023-02-28T03:05:32;66.13;;;29.10;;
13255;SDS011;37913;48.370;10.930;2023-02-28T03:08:06;59.50;;;27.53;;
13255;SDS011;37913;48.370;10.930;2023-02-28T03:10:34;62.07;;;28.17;;
13255;SDS011;37913;48.370;10.930;2023-02-28T03:13:08;60.60;;;28.70;;
13255;SDS011;37913;48.370;10.930;2023-02-28T03:15:58;64.10;;;28.40;;
13255;SDS011;37913;48.370;10.930;2023-02-28T03:18:36;58.93;;;28.23;;
13255;SDS011;37913;48.370;10.930;2023-02-28T03:21:14;58.93;;;27.80;;
13255;SDS011;37913;48.370;10.930;2023-02-28T03:23:48;64.07;;;28.53;;
13255;SDS011;37913;48.370;10.930;2023-02-28T03:26:24;61.47;;;27.90;;
13255;SDS011;37913;48.370;10.930;2023-02-28T03:28:54;58.37;;;27.57;;
13255;SDS011;37913;48.370;10.930;2023-02-28T03:31:29;61.17;;;28.13;;
13255;SDS011;37913;48.370;10.930;2023-02-28T03:34:00;59.93;;;28.47;;
13255;SDS011;37913;48.370;10.930;2023-02-28T03:36:32;62.83;;;28.53;;
13255;SDS011;37913;48.370;10.930;2023-02-28T03:39:09;55.93;;;26.77;;
13255;SDS011;37913;48.370;10.930;2023-02-28T03:41:41;63.53;;;29.53;;
13255;SDS011;37913;48.370;10.930;2023-02-28T03:44:13;62.77;;;28.63;;
13255;SDS011;37913;48.370;10.930;2023-02-28T03:46:45;58.40;;;27.77;;
13255;SDS011;37913;48.370;10.930;2023-02-28T03:49:18;63.57;;;29.10;;
13255;SDS011;37913;48.370;10.930;2023-02-28T03:51:49;57.50;;;27.20;;
13255;SDS011;37913;48.370;10.930;2023-02-28T03:54:18;57.67;;;28.07;;
13255;SDS011;37913;48.370;10.930;2023-02-28T03:56:52;57.03;;;27.87;;
13255;SDS011;37913;48.370;10.930;2023-02-28T03:59:24;58.60;;;27.47;;
13255;SDS011;37913;48.370;10.930;2023-02-28T04:01:54;57.57;;;27.80;;
13255;SDS011;37913;48.370;10.930;2023-02-28T04:04:23;64.03;;;29.13;;
13255;SDS011;37913;48.370;10.930;2023-02-28T04:06:52;61.73;;;29.17;;
13255;SDS011;37913;48.370;10.930;2023-02-28T04:09:26;56.63;;;27.53;;
13255;SDS011;37913;48.370;10.930;2023-02-28T04:11:53;58.83;;;28.07;;
13255;SDS011;37913;48.370;10.930;2023-02-28T04:14:21;54.87;;;27.03;;
13255;SDS011;37913;48.370;10.930;2023-02-28T04:16:48;59.70;;;28.03;;
13255;SDS011;37913;48.370;10.930;2023-02-28T04:19:17;56.00;;;27.47;;
13255;SDS011;37913;48.370;10.930;2023-02-28T04:21:45;57.67;;;28.07;;
13255;SDS011;37913;48.370;10.930;2023-02-28T04:24:15;60.93;;;28.43;;
13255;SDS011;37913;48.370;10.930;2023-02-28T04:26:43;61.10;;;28.97;;
13255;SDS011;37913;48.370;10.930;2023-02-28T04:29:12;58.00;;;27.67;;
13255;SDS011;37913;48.370;10.930;2023-02-28T04:31:40;62.53;;;28.80;;
13255;SDS011;37913;48.370;10.930;2023-02-28T04:34:07;61.50;;;28.60;;
13255;SDS011;37913;48.370;10.930;2023-02-28T04:36:34;66.23;;;30.57;;
13255;SDS011;37913;48.370;10.930;2023-02-28T04:39:01;63.53;;;28.47;;
13255;SDS011;37913;48.370;10.930;2023-02-28T04:41:30;68.50;;;29.63;;
13255;SDS011;37913;48.370;10.930;2023-02-28T04:43:57;63.47;;;29.23;;
13255;SDS011;37913;48.370;10.930;2023-02-28T04:46:24;55.63;;;26.70;;
13255;SDS011;37913;48.370;10.930;2023-02-28T04:48:51;68.93;;;30.73;;
13255;SDS011;37913;48.370;10.930;2023-02-28T04:51:18;68.77;;;30.80;;
13255;SDS011;37913;48.370;10.930;2023-02-28T04:53:45;62.17;;;29.33;;
13255;SDS011;37913;48.370;10.930;2023-02-28T04:56:14;68.10;;;29.90;;
13255;SDS011;37913;48.370;10.930;2023-02-28T04:58:43;70.20;;;30.63;;
13255;SDS011;37913;48.370;10.930;2023-02-28T05:01:18;60.50;;;28.90;;
13255;SDS011;37913;48.370;10.930;2023-02-28T05:03:47;71.87;;;30.43;;
13255;SDS011;37913;48.370;10.930;2023-02-28T05:06:15;71.77;;;30.63;;
13255;SDS011;37913;48.370;10.930;2023-02-28T05:08:42;62.17;;;28.97;;
13255;SDS011;37913;48.370;10.930;2023-02-28T05:11:13;71.03;;;31.20;;
13255;SDS011;37913;48.370;10.930;2023-02-28T05:13:44;68.20;;;30.50;;
13255;SDS011;37913;48.370;10.930;2023-02-28T05:16:11;66.80;;;29.67;;
13255;SDS011;37913;48.370;10.930;2023-02-28T05:18:38;67.63;;;30.77;;
13255;SDS011;37913;48.370;10.930;2023-02-28T05:21:05;67.63;;;29.90;;
13255;SDS011;37913;48.370;10.930;2023-02-28T05:23:43;68.77;;;29.87;;
13255;SDS011;37913;48.370;10.930;2023-02-28T05:26:10;63.73;;;28.83;;
13255;SDS011;37913;48.370;10.930;2023-02-28T05:28:37;64.97;;;28.93;;
13255;SDS011;37913;48.370;10.930;2023-02-28T05:31:05;65.37;;;30.00;;
13255;SDS011;37913;48.370;10.930;2023-02-28T05:33:33;61.93;;;29.57;;
13255;SDS011;37913;48.370;10.930;2023-02-28T05:36:00;54.13;;;27.70;;
13255;SDS011;37913;48.370;10.930;2023-02-28T05:38:27;63.63;;;29.40;;
13255;SDS011;37913;48.370;10.930;2023-02-28T05:40:54;61.93;;;28.63;;
13255;SDS011;37913;48.370;10.930;2023-02-28T05:43:21;69.87;;;30.43;;
13255;SDS011;37913;48.370;10.930;2023-02-28T05:45:48;80.40;;;32.47;;
13255;SDS011;37913;48.370;10.930;2023-02-28T05:48:16;70.53;;;30.70;;
13255;SDS011;37913;48.370;10.930;2023-02-28T05:50:43;77.13;;;31.93;;
13255;SDS011;37913;48.370;10.930;2023-02-28T05:53:11;62.07;;;29.50;;
13255;SDS011;37913;48.370;10.930;2023-02-28T05:55:38;74.03;;;31.37;;
13255;SDS011;37913;48.370;10.930;2023-02-28T05:58:06;62.23;;;29.13;;
13255;SDS011;37913;48.370;10.930;2023-02-28T06:00:33;77.40;;;31.63;;
13255;SDS011;37913;48.370;10.930;2023-02-28T06:03:00;70.17;;;30.73;;
13255;SDS011;37913;48.370;10.930;2023-02-28T06:05:28;71.27;;;31.10;;
13255;SDS011;37913;48.370;10.930;2023-02-28T06:07:55;66.70;;;30.17;;
13255;SDS011;37913;48.370;10.930;2023-02-28T06:10:22;67.37;;;30.93;;
13255;SDS011;37913;48.370;10.930;2023-02-28T06:12:49;80.00;;;33.10;;
13255;SDS011;37913;48.370;10.930;2023-02-28T06:15:16;92.23;;;38.63;;
13255;SDS011;37913;48.370;10.930;2023-02-28T06:17:43;70.93;;;30.57;;
13255;SDS011;37913;48.370;10.930;2023-02-28T06:20:11;69.83;;;30.50;;
13255;SDS011;37913;48.370;10.930;2023-02-28T06:22:40;70.33;;;30.77;;
13255;SDS011;37913;48.370;10.930;2023-02-28T06:25:09;72.00;;;30.40;;
13255;SDS011;37913;48.370;10.930;2023-02-28T06:27:36;73.63;;;31.33;;
13255;SDS011;37913;48.370;10.930;2023-02-28T06:30:03;61.90;;;28.93;;
13255;SDS011;37913;48.370;10.930;2023-02-28T06:32:31;73.10;;;31.17;;
13255;SDS011;37913;48.370;10.930;2023-02-28T06:34:57;98.63;;;34.27;;
13255;SDS011;37913;48.370;10.930;2023-02-28T06:37:25;64.37;;;29.13;;
13255;SDS011;37913;48.370;10.930;2023-02-28T06:39:53;69.00;;;30.30;;
13255;SDS011;37913;48.370;10.930;2023-02-28T06:42:21;74.27;;;30.70;;
13255;SDS011;37913;48.370;10.930;2023-02-28T06:44:49;96.50;;;34.87;;
13255;SDS011;37913;48.370;10.930;2023-02-28T06:47:16;63.37;;;29.30;;
13255;SDS011;37913;48.370;10.930;2023-02-28T06:49:44;70.03;;;30.17;;
13255;SDS011;37913;48.370;10.930;2023-02-28T06:52:11;65.57;;;29.77;;
13255;SDS011;37913;48.370;10.930;2023-02-28T06:54:38;67.90;;;29.87;;
13255;SDS011;37913;48.370;10.930;2023-02-28T06:57:06;68.93;;;31.00;;
13255;SDS011;37913;48.370;10.930;2023-02-28T06:59:33;66.13;;;29.97;;
13255;SDS011;37913;48.370;10.930;2023-02-28T07:02:01;71.67;;;31.67;;
13255;SDS011;37913;48.370;10.930;2023-02-28T07:04:28;69.77;;;30.23;;
13255;SDS011;37913;48.370;10.930;2023-02-28T07:06:55;61.87;;;29.50;;
13255;SDS011;37913;48.370;10.930;2023-02-28T07:09:22;71.37;;;31.17;;
13255;SDS011;37913;48.370;10.930;2023-02-28T07:11:49;55.93;;;28.00;;
13255;SDS011;37913;48.370;10.930;2023-02-28T07:14:17;68.43;;;29.97;;
13255;SDS011;37913;48.370;10.930;2023-02-28T07:16:44;66.80;;;30.17;;
13255;SDS011;37913;48.370;10.930;2023-02-28T07:19:11;67.23;;;30.37;;
13255;SDS011;37913;48.370;10.930;2023-02-28T07:21:38;68.00;;;31.20;;
13255;SDS011;37913;48.370;10.930;2023-02-28T07:24:05;69.63;;;30.97;;
13255;SDS011;37913;48.370;10.930;2023-02-28T07:26:32;73.70;;;32.63;;
13255;SDS011;37913;48.370;10.930;2023-02-28T07:29:00;62.47;;;30.30;;
13255;SDS011;37913;48.370;10.930;2023-02-28T07:31:28;63.40;;;29.43;;
13255;SDS011;37913;48.370;10.930;2023-02-28T07:33:55;71.60;;;31.10;;
13255;SDS011;37913;48.370;10.930;2023-02-28T07:36:22;67.40;;;30.67;;
13255;SDS011;37913;48.370;10.930;2023-02-28T07:38:49;66.87;;;29.90;;
13255;SDS011;37913;48.370;10.930;2023-02-28T07:41:16;71.27;;;31.47;;
13255;SDS011;37913;48.370;10.930;2023-02-28T07:43:44;60.97;;;29.17;;
13255;SDS011;37913;48.370;10.930;2023-02-28T07:46:12;76.47;;;31.83;;
13255;SDS011;37913;48.370;10.930;2023-02-28T07:48:43;68.97;;;29.87;;
13255;SDS011;37913;48.370;10.930;2023-02-28T07:51:11;64.50;;;30.23;;
13255;SDS011;37913;48.370;10.930;2023-02-28T07:53:38;67.00;;;30.27;;
13255;SDS011;37913;48.370;10.930;2023-02-28T07:56:06;73.57;;;31.90;;
13255;SDS011;37913;48.370;10.930;2023-02-28T07:58:33;69.23;;;30.43;;
13255;SDS011;37913;48.370;10.930;2023-02-28T08:01:04;66.57;;;30.27;;
13255;SDS011;37913;48.370;10.930;2023-02-28T08:03:32;73.00;;;31.93;;
13255;SDS011;37913;48.370;10.930;2023-02-28T08:06:00;67.77;;;30.73;;
13255;SDS011;37913;48.370;10.930;2023-02-28T08:08:29;59.33;;;28.53;;
13255;SDS011;37913;48.370;10.930;2023-02-28T08:10:57;70.80;;;31.30;;
13255;SDS011;37913;48.370;10.930;2023-02-28T08:13:25;74.67;;;31.50;;
13255;SDS011;37913;48.370;10.930;2023-02-28T08:15:53;71.93;;;32.50;;
13255;SDS011;37913;48.370;10.930;2023-02-28T08:18:21;75.63;;;32.60;;
13255;SDS011;37913;48.370;10.930;2023-02-28T08:20:50;68.67;;;31.33;;
13255;SDS011;37913;48.370;10.930;2023-02-28T08:23:19;83.73;;;33.03;;
13255;SDS011;37913;48.370;10.930;2023-02-28T08:25:52;67.43;;;30.50;;
13255;SDS011;37913;48.370;10.930;2023-02-28T08:28:19;68.27;;;31.53;;
13255;SDS011;37913;48.370;10.930;2023-02-28T08:30:46;74.47;;;32.57;;
13255;SDS011;37913;48.370;10.930;2023-02-28T08:33:14;64.13;;;31.03;;
13255;SDS011;37913;48.370;10.930;2023-02-28T08:35:40;80.43;;;33.63;;
13255;SDS011;37913;48.370;10.930;2023-02-28T08:38:07;80.23;;;33.63;;
13255;SDS011;37913;48.370;10.930;2023-02-28T08:40:36;80.77;;;33.07;;
13255;SDS011;37913;48.370;10.930;2023-02-28T08:43:03;76.40;;;32.10;;
13255;SDS011;37913;48.370;10.930;2023-02-28T08:45:29;87.70;;;34.67;;
13255;SDS011;37913;48.370;10.930;2023-02-28T08:47:56;79.27;;;33.20;;
13255;SDS011;37913;48.370;10.930;2023-02-28T08:50:23;76.40;;;32.90;;
13255;SDS011;37913;48.370;10.930;2023-02-28T08:52:50;75.37;;;33.13;;
13255;SDS011;37913;48.370;10.930;2023-02-28T08:55:17;69.00;;;31.83;;
13255;SDS011;37913;48.370;10.930;2023-02-28T08:57:45;70.07;;;31.17;;
13255;SDS011;37913;48.370;10.930;2023-02-28T09:00:13;66.80;;;30.97;;
13255;SDS011;37913;48.370;10.930;2023-02-28T09:02:40;70.43;;;31.47;;
13255;SDS011;37913;48.370;10.930;2023-02-28T09:05:08;72.60;;;32.97;;
13255;SDS011;37913;48.370;10.930;2023-02-28T09:07:36;70.87;;;32.33;;
13255;SDS011;37913;48.370;10.930;2023-02-28T09:10:03;76.20;;;33.13;;
13255;SDS011;37913;48.370;10.930;2023-02-28T09:12:32;84.50;;;36.13;;
13255;SDS011;37913;48.370;10.930;2023-02-28T09:15:02;104.63;;;38.30;;
13255;SDS011;37913;48.370;10.930;2023-02-28T09:17:30;73.90;;;32.33;;
13255;SDS011;37913;48.370;10.930;2023-02-28T09:19:57;74.23;;;33.47;;
13255;SDS011;37913;48.370;10.930;2023-02-28T09:22:24;74.40;;;33.23;;
13255;SDS011;37913;48.370;10.930;2023-02-28T09:24:51;104.90;;;37.40;;
13255;SDS011;37913;48.370;10.930;2023-02-28T09:27:18;73.60;;;32.50;;
13255;SDS011;37913;48.370;10.930;2023-02-28T09:29:45;77.17;;;34.80;;
13255;SDS011;37913;48.370;10.930;2023-02-28T09:32:14;69.73;;;32.07;;
13255;SDS011;37913;48.370;10.930;2023-02-28T09:34:42;76.00;;;33.70;;
13255;SDS011;37913;48.370;10.930;2023-02-28T09:37:09;69.53;;;31.73;;
13255;SDS011;37913;48.370;10.930;2023-02-28T09:39:36;82.60;;;34.40;;
13255;SDS011;37913;48.370;10.930;2023-02-28T09:42:03;79.75;;;34.60;;
13255;SDS011;37913;48.370;10.930;2023-02-28T09:44:32;77.77;;;34.47;;
13255;SDS011;37913;48.370;10.930;2023-02-28T09:47:05;76.55;;;35.17;;
13255;SDS011;37913;48.370;10.930;2023-02-28T09:49:41;85.72;;;36.65;;
13255;SDS011;37913;48.370;10.930;2023-02-28T09:52:12;82.15;;;36.47;;
13255;SDS011;37913;48.370;10.930;2023-02-28T09:54:43;88.18;;;37.92;;
13255;SDS011;37913;48.370;10.930;2023-02-28T09:57:14;90.47;;;38.17;;
13255;SDS011;37913;48.370;10.930;2023-02-28T09:59:54;82.07;;;36.60;;
13255;SDS011;37913;48.370;10.930;2023-02-28T10:05:50;84.38;;;37.53;;
13255;SDS011;37913;48.370;10.930;2023-02-28T10:08:23;86.63;;;39.33;;
13255;SDS011;37913;48.370;10.930;2023-02-28T10:10:54;76.97;;;39.20;;
13255;SDS011;37913;48.370;10.930;2023-02-28T10:13:25;84.82;;;40.45;;
13255;SDS011;37913;48.370;10.930;2023-02-28T10:15:58;92.88;;;41.70;;
13255;SDS011;37913;48.370;10.930;2023-02-28T10:18:30;97.95;;;42.92;;
13255;SDS011;37913;48.370;10.930;2023-02-28T10:21:05;83.65;;;40.20;;
13255;SDS011;37913;48.370;10.930;2023-02-28T10:23:40;104.18;;;45.05;;
13255;SDS011;37913;48.370;10.930;2023-02-28T10:26:11;91.30;;;42.17;;
13255;SDS011;37913;48.370;10.930;2023-02-28T10:28:41;95.63;;;43.95;;
13255;SDS011;37913;48.370;10.930;2023-02-28T10:31:09;99.68;;;45.38;;
13255;SDS011;37913;48.370;10.930;2023-02-28T10:33:41;107.63;;;46.35;;
13255;SDS011;37913;48.370;10.930;2023-02-28T10:36:10;94.80;;;44.28;;
13255;SDS011;37913;48.370;10.930;2023-02-28T10:38:41;110.40;;;46.70;;
13255;SDS011;37913;48.370;10.930;2023-02-28T10:41:11;94.90;;;42.85;;
13255;SDS011;37913;48.370;10.930;2023-02-28T10:43:40;88.35;;;40.83;;
13255;SDS011;37913;48.370;10.930;2023-02-28T10:46:12;85.72;;;40.53;;
13255;SDS011;37913;48.370;10.930;2023-02-28T10:48:57;96.32;;;43.03;;
13255;SDS011;37913;48.370;10.930;2023-02-28T10:51:35;83.22;;;40.50;;
13255;SDS011;37913;48.370;10.930;2023-02-28T10:54:03;89.32;;;41.08;;
13255;SDS011;37913;48.370;10.930;2023-02-28T10:56:31;117.00;;;47.90;;
13255;SDS011;37913;48.370;10.930;2023-02-28T10:58:59;87.50;;;41.47;;
13255;SDS011;37913;48.370;10.930;2023-02-28T11:01:34;83.90;;;40.90;;
13255;SDS011;37913;48.370;10.930;2023-02-28T11:04:03;90.55;;;42.03;;
13255;SDS011;37913;48.370;10.930;2023-02-28T11:06:45;92.57;;;42.40;;
13255;SDS011;37913;48.370;10.930;2023-02-28T11:09:16;97.00;;;43.38;;
13255;SDS011;37913;48.370;10.930;2023-02-28T11:11:49;91.60;;;43.15;;
13255;SDS011;37913;48.370;10.930;2023-02-28T11:14:18;87.65;;;42.38;;
13255;SDS011;37913;48.370;10.930;2023-02-28T11:16:47;94.68;;;43.35;;
13255;SDS011;37913;48.370;10.930;2023-02-28T11:19:17;87.38;;;42.08;;
13255;SDS011;37913;48.370;10.930;2023-02-28T11:21:50;89.22;;;41.90;;
13255;SDS011;37913;48.370;10.930;2023-02-28T11:24:22;89.07;;;40.90;;
13255;SDS011;37913;48.370;10.930;2023-02-28T11:26:51;107.70;;;44.00;;
13255;SDS011;37913;48.370;10.930;2023-02-28T11:29:20;94.32;;;41.70;;
13255;SDS011;37913;48.370;10.930;2023-02-28T11:32:01;91.72;;;40.85;;
13255;SDS011;37913;48.370;10.930;2023-02-28T11:34:29;90.80;;;40.13;;
13255;SDS011;37913;48.370;10.930;2023-02-28T11:36:58;95.13;;;41.47;;
13255;SDS011;37913;48.370;10.930;2023-02-28T11:39:29;80.93;;;39.45;;
13255;SDS011;37913;48.370;10.930;2023-02-28T11:45:01;86.07;;;39.92;;
13255;SDS011;37913;48.370;10.930;2023-02-28T11:47:42;93.45;;;41.25;;
13255;SDS011;37913;48.370;10.930;2023-02-28T11:50:16;82.32;;;39.00;;
13255;SDS011;37913;48.370;10.930;2023-02-28T11:52:54;91.78;;;41.05;;
13255;SDS011;37913;48.370;10.930;2023-02-28T11:55:24;94.43;;;41.35;;
13255;SDS011;37913;48.370;10.930;2023-02-28T11:57:59;90.65;;;40.22;;
13255;SDS011;37913;48.370;10.930;2023-02-28T12:00:53;90.75;;;40.38;;
13255;SDS011;37913;48.370;10.930;2023-02-28T12:03:35;92.78;;;40.90;;
13255;SDS011;37913;48.370;10.930;2023-02-28T12:06:13;96.03;;;41.15;;
13255;SDS011;37913;48.370;10.930;2023-02-28T12:08:49;90.28;;;39.55;;
13255;SDS011;37913;48.370;10.930;2023-02-28T12:11:43;89.93;;;41.22;;
13255;SDS011;37913;48.370;10.930;2023-02-28T12:14:22;91.22;;;41.17;;
13255;SDS011;37913;48.370;10.930;2023-02-28T12:17:08;88.03;;;41.17;;
13255;SDS011;37913;48.370;10.930;2023-02-28T12:19:44;92.75;;;42.28;;
13255;SDS011;37913;48.370;10.930;2023-02-28T12:22:27;93.10;;;43.10;;
13255;SDS011;37913;48.370;10.930;2023-02-28T12:27:58;88.85;;;42.08;;
13255;SDS011;37913;48.370;10.930;2023-02-28T12:30:27;82.43;;;42.42;;
13255;SDS011;37913;48.370;10.930;2023-02-28T12:32:56;92.88;;;42.88;;
13255;SDS011;37913;48.370;10.930;2023-02-28T12:35:31;93.13;;;43.75;;
13255;SDS011;37913;48.370;10.930;2023-02-28T12:38:01;95.70;;;44.13;;
13255;SDS011;37913;48.370;10.930;2023-02-28T12:40:40;89.88;;;42.50;;
13255;SDS011;37913;48.370;10.930;2023-02-28T12:43:09;88.20;;;41.13;;
13255;SDS011;37913;48.370;10.930;2023-02-28T12:45:41;91.25;;;42.15;;
13255;SDS011;37913;48.370;10.930;2023-02-28T12:48:14;86.72;;;40.58;;
13255;SDS011;37913;48.370;10.930;2023-02-28T12:50:45;95.68;;;42.78;;
13255;SDS011;37913;48.370;10.930;2023-02-28T12:53:18;86.40;;;41.58;;
13255;SDS011;37913;48.370;10.930;2023-02-28T12:55:56;91.88;;;44.17;;
13255;SDS011;37913;48.370;10.930;2023-02-28T12:58:35;89.45;;;43.03;;
13255;SDS011;37913;48.370;10.930;2023-02-28T13:01:14;93.40;;;44.55;;
13255;SDS011;37913;48.370;10.930;2023-02-28T13:10:06;95.50;;;44.78;;
13255;SDS011;37913;48.370;10.930;2023-02-28T13:12:35;98.70;;;49.85;;
13255;SDS011;37913;48.370;10.930;2023-02-28T13:15:05;103.50;;;52.25;;
13255;SDS011;37913;48.370;10.930;2023-02-28T13:17:38;95.95;;;48.58;;
13255;SDS011;37913;48.370;10.930;2023-02-28T13:20:14;91.07;;;48.88;;
13255;SDS011;37913;48.370;10.930;2023-02-28T13:22:44;102.05;;;48.17;;
13255;SDS011;37913;48.370;10.930;2023-02-28T13:31:32;99.13;;;48.65;;
13255;SDS011;37913;48.370;10.930;2023-02-28T13:34:15;93.43;;;45.63;;
13255;SDS011;37913;48.370;10.930;2023-02-28T13:36:42;101.53;;;47.20;;
13255;SDS011;37913;48.370;10.930;2023-02-28T13:42:23;93.07;;;43.30;;
13255;SDS011;37913;48.370;10.930;2023-02-28T13:45:20;106.55;;;44.90;;
13255;SDS011;37913;48.370;10.930;2023-02-28T13:47:54;84.25;;;40.03;;
13255;SDS011;37913;48.370;10.930;2023-02-28T13:50:27;95.88;;;42.72;;
13255;SDS011;37913;48.370;10.930;2023-02-28T13:56:05;88.47;;;42.28;;
13255;SDS011;37913;48.370;10.930;2023-02-28T13:58:47;88.82;;;40.08;;
13255;SDS011;37913;48.370;10.930;2023-02-28T14:01:27;86.35;;;40.53;;
13255;SDS011;37913;48.370;10.930;2023-02-28T14:04:39;87.10;;;42.63;;
13255;SDS011;37913;48.370;10.930;2023-02-28T14:07:20;86.85;;;38.17;;
13255;SDS011;37913;48.370;10.930;2023-02-28T14:09:51;89.82;;;39.10;;
13255;SDS011;37913;48.370;10.930;2023-02-28T14:15:26;88.55;;;38.28;;
13255;SDS011;37913;48.370;10.930;2023-02-28T14:18:11;81.80;;;36.63;;
13255;SDS011;37913;48.370;10.930;2023-02-28T14:20:45;82.88;;;37.63;;
13255;SDS011;37913;48.370;10.930;2023-02-28T14:23:16;79.72;;;36.80;;
13255;SDS011;37913;48.370;10.930;2023-02-28T14:25:54;79.55;;;36.65;;
13255;SDS011;37913;48.370;10.930;2023-02-28T14:28:39;83.75;;;37.20;;
13255;SDS011;37913;48.370;10.930;2023-02-28T14:31:22;92.57;;;38.92;;
13255;SDS011;37913;48.370;10.930;2023-02-28T14:33:59;88.43;;;39.15;;
13255;SDS011;37913;48.370;10.930;2023-02-28T14:36:44;81.97;;;36.88;;
13255;SDS011;37913;48.370;10.930;2023-02-28T14:39:15;88.28;;;39.00;;
13255;SDS011;37913;48.370;10.930;2023-02-28T14:41:45;85.60;;;38.55;;
13255;SDS011;37913;48.370;10.930;2023-02-28T14:44:13;94.22;;;40.05;;
13255;SDS011;37913;48.370;10.930;2023-02-28T14:46:42;86.30;;;38.45;;
13255;SDS011;37913;48.370;10.930;2023-02-28T14:49:13;95.40;;;40.90;;
13255;SDS011;37913;48.370;10.930;2023-02-28T14:51:48;89.72;;;39.53;;
13255;SDS011;37913;48.370;10.930;2023-02-28T14:54:17;80.45;;;37.92;;
13255;SDS011;37913;48.370;10.930;2023-02-28T14:56:49;88.10;;;38.80;;
13255;SDS011;37913;48.370;10.930;2023-02-28T14:59:24;97.10;;;41.95;;
13255;SDS011;37913;48.370;10.930;2023-02-28T15:04:52;95.60;;;39.70;;
13255;SDS011;37913;48.370;10.930;2023-02-28T15:07:22;93.78;;;39.90;;
13255;SDS011;37913;48.370;10.930;2023-02-28T15:10:06;82.75;;;38.05;;
13255;SDS011;37913;48.370;10.930;2023-02-28T15:12:35;103.07;;;41.65;;
13255;SDS011;37913;48.370;10.930;2023-02-28T15:15:03;95.80;;;39.78;;